sensor_id;sensor_type;location;lat;lon;timestamp;P1;durP1;ratioP1;P2;durP2;ratioP2
45806;SDS011;31507;51.494;7.518;2022-10-13T00:00:00;75.47;;;33.88;;
45806;SDS011;31507;51.494;7.518;2022-10-13T00:02:25;69.80;;;34.45;;
45806;SDS011;31507;51.494;7.518;2022-10-13T00:04:51;71.80;;;32.47;;
45806;SDS011;31507;51.494;7.518;2022-10-13T00:07:17;66.72;;;30.88;;
45806;SDS011;31507;51.494;7.518;2022-10-13T00:09:42;62.38;;;30.02;;
45806;SDS011;31507;51.494;7.518;2022-10-13T00:12:08;55.13;;;29.65;;
45806;SDS011;31507;51.494;7.518;2022-10-13T00:14:33;58.75;;;29.00;;
45806;SDS011;31507;51.494;7.518;2022-10-13T00:16:59;57.38;;;27.10;;
45806;SDS011;31507;51.494;7.518;2022-10-13T00:19:25;46.80;;;24.88;;
45806;SDS011;31507;51.494;7.518;2022-10-13T00:21:51;50.15;;;26.35;;
45806;SDS011;31507;51.494;7.518;2022-10-13T00:24:17;45.08;;;24.33;;
45806;SDS011;31507;51.494;7.518;2022-10-13T00:26:42;38.58;;;23.70;;
45806;SDS011;31507;51.494;7.518;2022-10-13T00:29:08;37.35;;;21.30;;
45806;SDS011;31507;51.494;7.518;2022-10-13T00:31:34;44.35;;;22.20;;
45806;SDS011;31507;51.494;7.518;2022-10-13T00:34:00;41.63;;;21.63;;
45806;SDS011;31507;51.494;7.518;2022-10-13T00:36:26;43.80;;;22.17;;
45806;SDS011;31507;51.494;7.518;2022-10-13T00:38:52;38.92;;;21.13;;
45806;SDS011;31507;51.494;7.518;2022-10-13T00:41:18;33.85;;;20.63;;
45806;SDS011;31507;51.494;7.518;2022-10-13T00:46:16;37.85;;;19.80;;
45806;SDS011;31507;51.494;7.518;2022-10-13T00:48:42;33.70;;;20.85;;
45806;SDS011;31507;51.494;7.518;2022-10-13T00:51:09;37.70;;;20.63;;
45806;SDS011;31507;51.494;7.518;2022-10-13T00:53:37;41.30;;;20.75;;
45806;SDS011;31507;51.494;7.518;2022-10-13T00:56:04;35.25;;;20.52;;
45806;SDS011;31507;51.494;7.518;2022-10-13T00:58:34;34.78;;;19.65;;
45806;SDS011;31507;51.494;7.518;2022-10-13T01:01:01;32.90;;;19.08;;
45806;SDS011;31507;51.494;7.518;2022-10-13T01:03:29;33.15;;;18.65;;
45806;SDS011;31507;51.494;7.518;2022-10-13T01:05:56;32.50;;;18.52;;
45806;SDS011;31507;51.494;7.518;2022-10-13T01:08:24;25.77;;;16.73;;
45806;SDS011;31507;51.494;7.518;2022-10-13T01:16:26;31.52;;;18.25;;
45806;SDS011;31507;51.494;7.518;2022-10-13T01:25:05;30.00;;;17.30;;
45806;SDS011;31507;51.494;7.518;2022-10-13T01:27:47;36.15;;;18.00;;
45806;SDS011;31507;51.494;7.518;2022-10-13T01:30:28;33.70;;;18.15;;
45806;SDS011;31507;51.494;7.518;2022-10-13T01:33:15;25.90;;;16.42;;
45806;SDS011;31507;51.494;7.518;2022-10-13T01:38:48;30.50;;;16.95;;
45806;SDS011;31507;51.494;7.518;2022-10-13T01:44:09;29.00;;;15.85;;
45806;SDS011;31507;51.494;7.518;2022-10-13T01:46:54;26.23;;;15.52;;
45806;SDS011;31507;51.494;7.518;2022-10-13T01:49:23;33.78;;;16.15;;
45806;SDS011;31507;51.494;7.518;2022-10-13T01:51:53;29.08;;;17.33;;
45806;SDS011;31507;51.494;7.518;2022-10-13T01:54:20;31.02;;;17.80;;
45806;SDS011;31507;51.494;7.518;2022-10-13T01:56:53;28.10;;;17.15;;
45806;SDS011;31507;51.494;7.518;2022-10-13T01:59:19;32.80;;;16.90;;
45806;SDS011;31507;51.494;7.518;2022-10-13T02:01:50;34.45;;;15.85;;
45806;SDS011;31507;51.494;7.518;2022-10-13T02:10:19;26.15;;;15.45;;
45806;SDS011;31507;51.494;7.518;2022-10-13T02:15:22;31.52;;;16.60;;
45806;SDS011;31507;51.494;7.518;2022-10-13T02:17:53;28.67;;;16.55;;
45806;SDS011;31507;51.494;7.518;2022-10-13T02:20:20;27.75;;;15.30;;
45806;SDS011;31507;51.494;7.518;2022-10-13T02:22:47;25.27;;;15.75;;
45806;SDS011;31507;51.494;7.518;2022-10-13T02:25:18;32.45;;;15.75;;
45806;SDS011;31507;51.494;7.518;2022-10-13T02:27:44;28.73;;;15.68;;
45806;SDS011;31507;51.494;7.518;2022-10-13T02:30:18;27.20;;;15.57;;
45806;SDS011;31507;51.494;7.518;2022-10-13T02:32:44;26.40;;;15.38;;
45806;SDS011;31507;51.494;7.518;2022-10-13T02:35:10;22.63;;;15.20;;
45806;SDS011;31507;51.494;7.518;2022-10-13T02:37:36;27.20;;;13.68;;
45806;SDS011;31507;51.494;7.518;2022-10-13T02:40:01;27.33;;;13.98;;
45806;SDS011;31507;51.494;7.518;2022-10-13T02:42:27;23.92;;;13.65;;
45806;SDS011;31507;51.494;7.518;2022-10-13T02:44:52;21.88;;;13.50;;
45806;SDS011;31507;51.494;7.518;2022-10-13T02:47:18;25.23;;;13.25;;
45806;SDS011;31507;51.494;7.518;2022-10-13T02:49:44;26.95;;;12.93;;
45806;SDS011;31507;51.494;7.518;2022-10-13T02:52:09;23.40;;;12.25;;
45806;SDS011;31507;51.494;7.518;2022-10-13T02:54:35;26.27;;;12.98;;
45806;SDS011;31507;51.494;7.518;2022-10-13T02:57:01;21.38;;;11.85;;
45806;SDS011;31507;51.494;7.518;2022-10-13T02:59:26;22.70;;;11.82;;
45806;SDS011;31507;51.494;7.518;2022-10-13T03:01:52;20.15;;;11.90;;
45806;SDS011;31507;51.494;7.518;2022-10-13T03:04:17;23.88;;;12.20;;
45806;SDS011;31507;51.494;7.518;2022-10-13T03:06:43;21.45;;;12.68;;
45806;SDS011;31507;51.494;7.518;2022-10-13T03:09:08;26.25;;;11.75;;
45806;SDS011;31507;51.494;7.518;2022-10-13T03:11:34;20.35;;;11.10;;
45806;SDS011;31507;51.494;7.518;2022-10-13T03:14:00;27.48;;;12.00;;
45806;SDS011;31507;51.494;7.518;2022-10-13T03:16:26;22.17;;;12.30;;
45806;SDS011;31507;51.494;7.518;2022-10-13T03:18:51;26.92;;;13.10;;
45806;SDS011;31507;51.494;7.518;2022-10-13T03:21:17;19.33;;;11.82;;
45806;SDS011;31507;51.494;7.518;2022-10-13T03:23:42;18.90;;;11.90;;
45806;SDS011;31507;51.494;7.518;2022-10-13T03:26:08;23.70;;;12.35;;
45806;SDS011;31507;51.494;7.518;2022-10-13T03:28:34;20.23;;;11.60;;
45806;SDS011;31507;51.494;7.518;2022-10-13T03:31:03;25.13;;;11.85;;
45806;SDS011;31507;51.494;7.518;2022-10-13T03:33:31;21.92;;;12.05;;
45806;SDS011;31507;51.494;7.518;2022-10-13T03:35:57;27.23;;;11.95;;
45806;SDS011;31507;51.494;7.518;2022-10-13T03:38:27;17.58;;;11.18;;
45806;SDS011;31507;51.494;7.518;2022-10-13T03:40:54;23.40;;;10.55;;
45806;SDS011;31507;51.494;7.518;2022-10-13T03:43:19;21.55;;;11.77;;
45806;SDS011;31507;51.494;7.518;2022-10-13T03:45:58;18.70;;;10.57;;
45806;SDS011;31507;51.494;7.518;2022-10-13T03:48:26;19.05;;;10.73;;
45806;SDS011;31507;51.494;7.518;2022-10-13T03:50:52;17.70;;;11.20;;
45806;SDS011;31507;51.494;7.518;2022-10-13T03:53:18;18.27;;;10.88;;
45806;SDS011;31507;51.494;7.518;2022-10-13T03:55:50;23.73;;;10.55;;
45806;SDS011;31507;51.494;7.518;2022-10-13T03:58:17;23.53;;;10.90;;
45806;SDS011;31507;51.494;7.518;2022-10-13T04:00:44;18.25;;;11.00;;
45806;SDS011;31507;51.494;7.518;2022-10-13T04:03:10;22.13;;;10.55;;
45806;SDS011;31507;51.494;7.518;2022-10-13T04:05:36;18.40;;;10.60;;
45806;SDS011;31507;51.494;7.518;2022-10-13T04:08:02;19.45;;;10.95;;
45806;SDS011;31507;51.494;7.518;2022-10-13T04:10:28;20.15;;;11.45;;
45806;SDS011;31507;51.494;7.518;2022-10-13T04:12:54;18.20;;;10.82;;
45806;SDS011;31507;51.494;7.518;2022-10-13T04:15:19;20.55;;;10.73;;
45806;SDS011;31507;51.494;7.518;2022-10-13T04:17:45;16.88;;;10.73;;
45806;SDS011;31507;51.494;7.518;2022-10-13T04:20:10;27.27;;;11.75;;
45806;SDS011;31507;51.494;7.518;2022-10-13T04:22:36;30.50;;;11.40;;
45806;SDS011;31507;51.494;7.518;2022-10-13T04:25:02;19.40;;;11.52;;
45806;SDS011;31507;51.494;7.518;2022-10-13T04:27:29;23.52;;;11.43;;
45806;SDS011;31507;51.494;7.518;2022-10-13T04:29:55;22.05;;;11.15;;
45806;SDS011;31507;51.494;7.518;2022-10-13T04:32:20;23.10;;;11.60;;
45806;SDS011;31507;51.494;7.518;2022-10-13T04:34:46;23.42;;;11.30;;
45806;SDS011;31507;51.494;7.518;2022-10-13T04:37:11;21.80;;;11.27;;
45806;SDS011;31507;51.494;7.518;2022-10-13T04:39:37;22.45;;;11.70;;
45806;SDS011;31507;51.494;7.518;2022-10-13T04:42:03;20.90;;;12.25;;
45806;SDS011;31507;51.494;7.518;2022-10-13T04:44:28;28.02;;;11.68;;
45806;SDS011;31507;51.494;7.518;2022-10-13T04:46:55;21.58;;;12.82;;
45806;SDS011;31507;51.494;7.518;2022-10-13T04:49:20;21.30;;;11.70;;
45806;SDS011;31507;51.494;7.518;2022-10-13T04:51:46;25.40;;;13.23;;
45806;SDS011;31507;51.494;7.518;2022-10-13T04:54:12;23.38;;;12.15;;
45806;SDS011;31507;51.494;7.518;2022-10-13T04:56:38;24.77;;;12.93;;
45806;SDS011;31507;51.494;7.518;2022-10-13T04:59:03;23.85;;;12.43;;
45806;SDS011;31507;51.494;7.518;2022-10-13T05:01:29;27.58;;;13.02;;
45806;SDS011;31507;51.494;7.518;2022-10-13T05:03:57;27.70;;;12.57;;
45806;SDS011;31507;51.494;7.518;2022-10-13T05:06:26;18.92;;;12.18;;
45806;SDS011;31507;51.494;7.518;2022-10-13T05:08:54;25.02;;;13.48;;
45806;SDS011;31507;51.494;7.518;2022-10-13T05:11:20;19.55;;;12.48;;
45806;SDS011;31507;51.494;7.518;2022-10-13T05:13:47;23.20;;;11.50;;
45806;SDS011;31507;51.494;7.518;2022-10-13T05:16:13;21.48;;;12.05;;
45806;SDS011;31507;51.494;7.518;2022-10-13T05:18:40;26.48;;;12.40;;
45806;SDS011;31507;51.494;7.518;2022-10-13T05:21:11;21.85;;;12.10;;
45806;SDS011;31507;51.494;7.518;2022-10-13T05:23:38;20.23;;;11.68;;
45806;SDS011;31507;51.494;7.518;2022-10-13T05:26:05;22.45;;;10.98;;
45806;SDS011;31507;51.494;7.518;2022-10-13T05:28:33;18.88;;;11.55;;
45806;SDS011;31507;51.494;7.518;2022-10-13T05:33:43;19.48;;;10.13;;
45806;SDS011;31507;51.494;7.518;2022-10-13T05:36:10;20.83;;;10.98;;
45806;SDS011;31507;51.494;7.518;2022-10-13T05:38:38;17.35;;;10.38;;
45806;SDS011;31507;51.494;7.518;2022-10-13T05:41:04;20.25;;;10.38;;
45806;SDS011;31507;51.494;7.518;2022-10-13T05:43:31;18.52;;;10.02;;
45806;SDS011;31507;51.494;7.518;2022-10-13T05:45:58;19.60;;;11.48;;
45806;SDS011;31507;51.494;7.518;2022-10-13T05:48:24;25.10;;;11.40;;
45806;SDS011;31507;51.494;7.518;2022-10-13T05:50:50;21.92;;;10.50;;
45806;SDS011;31507;51.494;7.518;2022-10-13T05:53:16;21.75;;;10.73;;
45806;SDS011;31507;51.494;7.518;2022-10-13T05:55:41;21.58;;;10.55;;
45806;SDS011;31507;51.494;7.518;2022-10-13T05:58:07;17.77;;;10.57;;
45806;SDS011;31507;51.494;7.518;2022-10-13T06:00:33;19.00;;;9.95;;
45806;SDS011;31507;51.494;7.518;2022-10-13T06:03:06;18.70;;;10.00;;
45806;SDS011;31507;51.494;7.518;2022-10-13T06:05:35;17.42;;;10.45;;
45806;SDS011;31507;51.494;7.518;2022-10-13T06:08:02;21.92;;;11.02;;
45806;SDS011;31507;51.494;7.518;2022-10-13T06:10:27;20.77;;;10.80;;
45806;SDS011;31507;51.494;7.518;2022-10-13T06:12:53;20.83;;;10.65;;
45806;SDS011;31507;51.494;7.518;2022-10-13T06:15:19;21.83;;;10.35;;
45806;SDS011;31507;51.494;7.518;2022-10-13T06:17:44;15.85;;;10.57;;
45806;SDS011;31507;51.494;7.518;2022-10-13T06:20:10;18.48;;;10.60;;
45806;SDS011;31507;51.494;7.518;2022-10-13T06:22:36;20.48;;;10.77;;
45806;SDS011;31507;51.494;7.518;2022-10-13T06:25:03;20.70;;;11.40;;
45806;SDS011;31507;51.494;7.518;2022-10-13T06:27:30;22.15;;;10.73;;
45806;SDS011;31507;51.494;7.518;2022-10-13T06:29:56;21.60;;;11.10;;
45806;SDS011;31507;51.494;7.518;2022-10-13T06:32:22;23.30;;;11.15;;
45806;SDS011;31507;51.494;7.518;2022-10-13T06:34:47;19.85;;;11.77;;
45806;SDS011;31507;51.494;7.518;2022-10-13T06:37:13;22.33;;;11.23;;
45806;SDS011;31507;51.494;7.518;2022-10-13T06:39:42;20.10;;;10.80;;
45806;SDS011;31507;51.494;7.518;2022-10-13T06:42:07;19.90;;;11.43;;
45806;SDS011;31507;51.494;7.518;2022-10-13T06:44:33;17.65;;;10.40;;
45806;SDS011;31507;51.494;7.518;2022-10-13T06:46:59;15.90;;;10.57;;
45806;SDS011;31507;51.494;7.518;2022-10-13T06:49:24;16.13;;;10.80;;
45806;SDS011;31507;51.494;7.518;2022-10-13T06:51:50;14.50;;;9.45;;
45806;SDS011;31507;51.494;7.518;2022-10-13T06:54:16;19.35;;;10.80;;
45806;SDS011;31507;51.494;7.518;2022-10-13T06:56:41;16.13;;;9.98;;
45806;SDS011;31507;51.494;7.518;2022-10-13T06:59:08;15.60;;;9.48;;
45806;SDS011;31507;51.494;7.518;2022-10-13T07:01:34;17.25;;;9.80;;
45806;SDS011;31507;51.494;7.518;2022-10-13T07:03:59;17.73;;;9.52;;
45806;SDS011;31507;51.494;7.518;2022-10-13T07:06:25;20.20;;;9.52;;
45806;SDS011;31507;51.494;7.518;2022-10-13T07:08:50;20.50;;;9.52;;
45806;SDS011;31507;51.494;7.518;2022-10-13T07:11:16;23.15;;;10.05;;
45806;SDS011;31507;51.494;7.518;2022-10-13T07:13:42;18.73;;;10.02;;
45806;SDS011;31507;51.494;7.518;2022-10-13T07:16:09;18.70;;;9.27;;
45806;SDS011;31507;51.494;7.518;2022-10-13T07:18:35;23.20;;;9.20;;
45806;SDS011;31507;51.494;7.518;2022-10-13T07:21:01;15.98;;;9.43;;
45806;SDS011;31507;51.494;7.518;2022-10-13T07:23:27;16.95;;;8.57;;
45806;SDS011;31507;51.494;7.518;2022-10-13T07:25:54;15.20;;;9.07;;
45806;SDS011;31507;51.494;7.518;2022-10-13T07:28:21;17.27;;;9.15;;
45806;SDS011;31507;51.494;7.518;2022-10-13T07:30:48;15.20;;;8.63;;
45806;SDS011;31507;51.494;7.518;2022-10-13T07:33:14;13.95;;;8.23;;
45806;SDS011;31507;51.494;7.518;2022-10-13T07:35:46;21.00;;;8.27;;
45806;SDS011;31507;51.494;7.518;2022-10-13T07:38:20;17.83;;;8.13;;
45806;SDS011;31507;51.494;7.518;2022-10-13T07:43:53;14.05;;;8.20;;
45806;SDS011;31507;51.494;7.518;2022-10-13T07:46:28;12.60;;;7.45;;
45806;SDS011;31507;51.494;7.518;2022-10-13T07:49:15;15.57;;;7.57;;
45806;SDS011;31507;51.494;7.518;2022-10-13T07:51:44;13.05;;;7.50;;
45806;SDS011;31507;51.494;7.518;2022-10-13T07:54:18;13.70;;;7.45;;
45806;SDS011;31507;51.494;7.518;2022-10-13T07:56:51;14.07;;;7.45;;
45806;SDS011;31507;51.494;7.518;2022-10-13T07:59:26;12.82;;;6.72;;
45806;SDS011;31507;51.494;7.518;2022-10-13T08:01:55;11.50;;;6.88;;
45806;SDS011;31507;51.494;7.518;2022-10-13T08:04:30;17.90;;;7.38;;
45806;SDS011;31507;51.494;7.518;2022-10-13T08:07:28;13.38;;;6.50;;
45806;SDS011;31507;51.494;7.518;2022-10-13T08:10:04;14.70;;;6.28;;
45806;SDS011;31507;51.494;7.518;2022-10-13T08:18:54;12.13;;;6.55;;
45806;SDS011;31507;51.494;7.518;2022-10-13T08:21:21;14.23;;;6.38;;
45806;SDS011;31507;51.494;7.518;2022-10-13T08:24:09;13.85;;;6.82;;
45806;SDS011;31507;51.494;7.518;2022-10-13T08:26:49;13.82;;;6.13;;
45806;SDS011;31507;51.494;7.518;2022-10-13T08:29:17;12.43;;;6.13;;
45806;SDS011;31507;51.494;7.518;2022-10-13T08:31:54;14.43;;;6.68;;
45806;SDS011;31507;51.494;7.518;2022-10-13T08:34:30;21.48;;;7.68;;
45806;SDS011;31507;51.494;7.518;2022-10-13T08:37:04;13.93;;;6.85;;
45806;SDS011;31507;51.494;7.518;2022-10-13T08:39:42;12.93;;;6.65;;
45806;SDS011;31507;51.494;7.518;2022-10-13T08:42:18;14.68;;;6.70;;
45806;SDS011;31507;51.494;7.518;2022-10-13T08:45:03;12.88;;;6.22;;
45806;SDS011;31507;51.494;7.518;2022-10-13T08:48:01;15.77;;;6.93;;
45806;SDS011;31507;51.494;7.518;2022-10-13T08:50:51;12.73;;;6.80;;
45806;SDS011;31507;51.494;7.518;2022-10-13T08:53:39;16.50;;;6.80;;
45806;SDS011;31507;51.494;7.518;2022-10-13T08:56:21;15.55;;;7.03;;
45806;SDS011;31507;51.494;7.518;2022-10-13T08:59:14;14.13;;;6.40;;
45806;SDS011;31507;51.494;7.518;2022-10-13T09:01:53;13.98;;;7.05;;
45806;SDS011;31507;51.494;7.518;2022-10-13T09:04:32;20.35;;;6.75;;
45806;SDS011;31507;51.494;7.518;2022-10-13T09:10:02;12.82;;;6.43;;
45806;SDS011;31507;51.494;7.518;2022-10-13T09:12:31;15.07;;;6.50;;
45806;SDS011;31507;51.494;7.518;2022-10-13T09:15:06;13.48;;;6.68;;
45806;SDS011;31507;51.494;7.518;2022-10-13T09:20:36;15.18;;;6.80;;
45806;SDS011;31507;51.494;7.518;2022-10-13T09:23:08;14.10;;;6.82;;
45806;SDS011;31507;51.494;7.518;2022-10-13T09:25:55;16.50;;;6.72;;
45806;SDS011;31507;51.494;7.518;2022-10-13T09:28:30;16.63;;;6.30;;
45806;SDS011;31507;51.494;7.518;2022-10-13T09:31:22;12.07;;;6.20;;
45806;SDS011;31507;51.494;7.518;2022-10-13T09:33:59;12.32;;;6.03;;
45806;SDS011;31507;51.494;7.518;2022-10-13T09:42:55;11.32;;;5.47;;
45806;SDS011;31507;51.494;7.518;2022-10-13T09:45:23;12.35;;;5.78;;
45806;SDS011;31507;51.494;7.518;2022-10-13T09:48:02;11.05;;;5.45;;
45806;SDS011;31507;51.494;7.518;2022-10-13T09:50:48;10.15;;;5.30;;
45806;SDS011;31507;51.494;7.518;2022-10-13T09:53:54;12.00;;;5.25;;
45806;SDS011;31507;51.494;7.518;2022-10-13T09:56:22;12.23;;;5.50;;
45806;SDS011;31507;51.494;7.518;2022-10-13T10:02:01;9.32;;;5.55;;
45806;SDS011;31507;51.494;7.518;2022-10-13T10:04:45;13.13;;;5.13;;
45806;SDS011;31507;51.494;7.518;2022-10-13T10:07:13;12.20;;;5.65;;
45806;SDS011;31507;51.494;7.518;2022-10-13T10:09:51;9.82;;;4.47;;
45806;SDS011;31507;51.494;7.518;2022-10-13T10:12:31;8.93;;;5.10;;
45806;SDS011;31507;51.494;7.518;2022-10-13T10:15:15;13.68;;;5.25;;
45806;SDS011;31507;51.494;7.518;2022-10-13T10:30:04;12.32;;;5.55;;
45806;SDS011;31507;51.494;7.518;2022-10-13T10:33:02;12.00;;;5.03;;
45806;SDS011;31507;51.494;7.518;2022-10-13T10:38:37;9.68;;;5.03;;
45806;SDS011;31507;51.494;7.518;2022-10-13T10:46:52;10.02;;;4.82;;
45806;SDS011;31507;51.494;7.518;2022-10-13T10:49:24;9.68;;;4.57;;
45806;SDS011;31507;51.494;7.518;2022-10-13T10:51:53;9.05;;;4.45;;
45806;SDS011;31507;51.494;7.518;2022-10-13T10:56:52;17.52;;;4.75;;
45806;SDS011;31507;51.494;7.518;2022-10-13T11:04:44;13.85;;;5.30;;
45806;SDS011;31507;51.494;7.518;2022-10-13T11:14:43;9.85;;;5.00;;
45806;SDS011;31507;51.494;7.518;2022-10-13T11:19:58;13.93;;;5.40;;
45806;SDS011;31507;51.494;7.518;2022-10-13T11:22:25;8.85;;;4.60;;
45806;SDS011;31507;51.494;7.518;2022-10-13T11:27:26;8.27;;;5.32;;
45806;SDS011;31507;51.494;7.518;2022-10-13T11:30:03;9.50;;;5.43;;
45806;SDS011;31507;51.494;7.518;2022-10-13T11:35:20;11.10;;;5.22;;
45806;SDS011;31507;51.494;7.518;2022-10-13T11:51:10;13.52;;;5.80;;
45806;SDS011;31507;51.494;7.518;2022-10-13T11:56:18;10.30;;;5.03;;
45806;SDS011;31507;51.494;7.518;2022-10-13T11:58:56;7.82;;;4.53;;
45806;SDS011;31507;51.494;7.518;2022-10-13T12:01:22;10.80;;;4.55;;
45806;SDS011;31507;51.494;7.518;2022-10-13T12:03:47;10.73;;;4.82;;
45806;SDS011;31507;51.494;7.518;2022-10-13T12:09:06;11.23;;;5.18;;
45806;SDS011;31507;51.494;7.518;2022-10-13T12:11:43;9.98;;;4.55;;
45806;SDS011;31507;51.494;7.518;2022-10-13T12:17:20;9.75;;;4.75;;
45806;SDS011;31507;51.494;7.518;2022-10-13T12:19:53;14.75;;;5.32;;
45806;SDS011;31507;51.494;7.518;2022-10-13T12:22:50;13.07;;;4.65;;
45806;SDS011;31507;51.494;7.518;2022-10-13T12:25:18;11.10;;;6.05;;
45806;SDS011;31507;51.494;7.518;2022-10-13T12:27:48;16.05;;;5.50;;
45806;SDS011;31507;51.494;7.518;2022-10-13T12:30:21;12.75;;;5.57;;
45806;SDS011;31507;51.494;7.518;2022-10-13T12:32:53;11.38;;;5.28;;
45806;SDS011;31507;51.494;7.518;2022-10-13T12:37:53;12.30;;;5.60;;
45806;SDS011;31507;51.494;7.518;2022-10-13T12:40:20;9.73;;;5.28;;
45806;SDS011;31507;51.494;7.518;2022-10-13T12:42:46;11.50;;;5.10;;
45806;SDS011;31507;51.494;7.518;2022-10-13T12:45:14;12.48;;;5.60;;
45806;SDS011;31507;51.494;7.518;2022-10-13T12:55:29;9.88;;;5.40;;
45806;SDS011;31507;51.494;7.518;2022-10-13T12:57:55;16.20;;;5.32;;
45806;SDS011;31507;51.494;7.518;2022-10-13T13:00:22;8.25;;;5.00;;
45806;SDS011;31507;51.494;7.518;2022-10-13T13:05:32;10.75;;;4.72;;
45806;SDS011;31507;51.494;7.518;2022-10-13T13:08:25;21.63;;;5.82;;
45806;SDS011;31507;51.494;7.518;2022-10-13T13:10:54;14.75;;;5.97;;
45806;SDS011;31507;51.494;7.518;2022-10-13T13:13:21;8.95;;;5.15;;
45806;SDS011;31507;51.494;7.518;2022-10-13T13:15:47;11.43;;;5.28;;
45806;SDS011;31507;51.494;7.518;2022-10-13T13:20:51;12.23;;;5.22;;
45806;SDS011;31507;51.494;7.518;2022-10-13T13:23:18;9.32;;;4.88;;
45806;SDS011;31507;51.494;7.518;2022-10-13T13:25:44;14.30;;;5.97;;
45806;SDS011;31507;51.494;7.518;2022-10-13T13:28:11;14.68;;;6.05;;
45806;SDS011;31507;51.494;7.518;2022-10-13T13:30:39;18.05;;;6.32;;
45806;SDS011;31507;51.494;7.518;2022-10-13T13:33:05;14.55;;;6.13;;
45806;SDS011;31507;51.494;7.518;2022-10-13T13:35:31;11.57;;;5.85;;
45806;SDS011;31507;51.494;7.518;2022-10-13T13:37:58;16.77;;;7.03;;
45806;SDS011;31507;51.494;7.518;2022-10-13T13:40:24;12.13;;;5.97;;
45806;SDS011;31507;51.494;7.518;2022-10-13T13:42:51;11.77;;;6.70;;
45806;SDS011;31507;51.494;7.518;2022-10-13T13:45:18;14.25;;;6.20;;
45806;SDS011;31507;51.494;7.518;2022-10-13T13:47:47;18.17;;;7.72;;
45806;SDS011;31507;51.494;7.518;2022-10-13T13:52:43;15.70;;;7.82;;
45806;SDS011;31507;51.494;7.518;2022-10-13T13:55:09;16.88;;;8.90;;
45806;SDS011;31507;51.494;7.518;2022-10-13T13:57:35;16.00;;;8.35;;
45806;SDS011;31507;51.494;7.518;2022-10-13T14:00:00;14.98;;;8.40;;
45806;SDS011;31507;51.494;7.518;2022-10-13T14:02:26;16.75;;;9.13;;
45806;SDS011;31507;51.494;7.518;2022-10-13T14:04:51;15.48;;;8.15;;
45806;SDS011;31507;51.494;7.518;2022-10-13T14:07:17;19.42;;;8.82;;
45806;SDS011;31507;51.494;7.518;2022-10-13T14:09:43;16.75;;;8.23;;
45806;SDS011;31507;51.494;7.518;2022-10-13T14:12:09;20.08;;;9.57;;
45806;SDS011;31507;51.494;7.518;2022-10-13T14:14:36;19.75;;;9.80;;
45806;SDS011;31507;51.494;7.518;2022-10-13T14:17:02;16.23;;;9.50;;
45806;SDS011;31507;51.494;7.518;2022-10-13T14:19:29;15.73;;;9.35;;
45806;SDS011;31507;51.494;7.518;2022-10-13T14:21:55;15.40;;;9.52;;
45806;SDS011;31507;51.494;7.518;2022-10-13T14:24:20;15.68;;;10.00;;
45806;SDS011;31507;51.494;7.518;2022-10-13T14:26:46;14.80;;;10.10;;
45806;SDS011;31507;51.494;7.518;2022-10-13T14:29:12;20.45;;;11.07;;
45806;SDS011;31507;51.494;7.518;2022-10-13T14:31:38;20.05;;;10.35;;
45806;SDS011;31507;51.494;7.518;2022-10-13T14:34:03;22.80;;;10.57;;
45806;SDS011;31507;51.494;7.518;2022-10-13T14:36:29;24.73;;;11.18;;
45806;SDS011;31507;51.494;7.518;2022-10-13T14:38:55;20.90;;;10.18;;
45806;SDS011;31507;51.494;7.518;2022-10-13T14:41:20;22.92;;;10.27;;
45806;SDS011;31507;51.494;7.518;2022-10-13T14:43:46;18.13;;;10.48;;
45806;SDS011;31507;51.494;7.518;2022-10-13T14:46:15;20.55;;;10.95;;
45806;SDS011;31507;51.494;7.518;2022-10-13T14:48:40;21.27;;;10.85;;
45806;SDS011;31507;51.494;7.518;2022-10-13T14:51:07;24.20;;;11.88;;
45806;SDS011;31507;51.494;7.518;2022-10-13T14:53:38;24.58;;;11.70;;
45806;SDS011;31507;51.494;7.518;2022-10-13T14:56:13;19.85;;;11.93;;
45806;SDS011;31507;51.494;7.518;2022-10-13T14:58:39;20.65;;;12.10;;
45806;SDS011;31507;51.494;7.518;2022-10-13T15:01:04;19.27;;;12.43;;
45806;SDS011;31507;51.494;7.518;2022-10-13T15:03:30;22.85;;;12.50;;
45806;SDS011;31507;51.494;7.518;2022-10-13T15:05:57;23.92;;;13.75;;
45806;SDS011;31507;51.494;7.518;2022-10-13T15:08:23;17.98;;;12.50;;
45806;SDS011;31507;51.494;7.518;2022-10-13T15:10:57;23.20;;;12.88;;
45806;SDS011;31507;51.494;7.518;2022-10-13T15:13:23;22.00;;;12.77;;
45806;SDS011;31507;51.494;7.518;2022-10-13T15:15:49;26.73;;;13.32;;
45806;SDS011;31507;51.494;7.518;2022-10-13T15:18:14;17.63;;;12.57;;
45806;SDS011;31507;51.494;7.518;2022-10-13T15:20:43;22.55;;;13.15;;
45806;SDS011;31507;51.494;7.518;2022-10-13T15:23:13;22.27;;;12.55;;
45806;SDS011;31507;51.494;7.518;2022-10-13T15:25:39;22.60;;;13.00;;
45806;SDS011;31507;51.494;7.518;2022-10-13T15:28:15;22.25;;;12.75;;
45806;SDS011;31507;51.494;7.518;2022-10-13T15:30:41;28.77;;;13.88;;
45806;SDS011;31507;51.494;7.518;2022-10-13T15:33:06;29.95;;;14.55;;
45806;SDS011;31507;51.494;7.518;2022-10-13T15:35:32;21.83;;;14.02;;
45806;SDS011;31507;51.494;7.518;2022-10-13T15:37:58;26.02;;;15.15;;
45806;SDS011;31507;51.494;7.518;2022-10-13T15:40:23;23.90;;;14.75;;
45806;SDS011;31507;51.494;7.518;2022-10-13T15:42:49;30.02;;;15.32;;
45806;SDS011;31507;51.494;7.518;2022-10-13T15:45:16;31.58;;;17.27;;
45806;SDS011;31507;51.494;7.518;2022-10-13T15:47:42;26.65;;;16.30;;
45806;SDS011;31507;51.494;7.518;2022-10-13T15:50:07;35.75;;;17.48;;
45806;SDS011;31507;51.494;7.518;2022-10-13T15:52:37;32.30;;;16.85;;
45806;SDS011;31507;51.494;7.518;2022-10-13T15:55:04;31.17;;;15.70;;
45806;SDS011;31507;51.494;7.518;2022-10-13T15:57:31;35.00;;;17.88;;
45806;SDS011;31507;51.494;7.518;2022-10-13T15:59:56;33.47;;;17.60;;
45806;SDS011;31507;51.494;7.518;2022-10-13T16:02:22;35.40;;;18.38;;
45806;SDS011;31507;51.494;7.518;2022-10-13T16:04:48;40.25;;;19.30;;
45806;SDS011;31507;51.494;7.518;2022-10-13T16:07:14;36.33;;;18.35;;
45806;SDS011;31507;51.494;7.518;2022-10-13T16:09:39;34.40;;;18.55;;
45806;SDS011;31507;51.494;7.518;2022-10-13T16:12:05;29.20;;;18.35;;
45806;SDS011;31507;51.494;7.518;2022-10-13T16:14:31;30.10;;;19.27;;
45806;SDS011;31507;51.494;7.518;2022-10-13T16:16:56;40.22;;;20.60;;
45806;SDS011;31507;51.494;7.518;2022-10-13T16:19:22;38.58;;;20.10;;
45806;SDS011;31507;51.494;7.518;2022-10-13T16:21:48;29.35;;;19.05;;
45806;SDS011;31507;51.494;7.518;2022-10-13T16:24:13;37.13;;;20.15;;
45806;SDS011;31507;51.494;7.518;2022-10-13T16:26:39;38.78;;;20.38;;
45806;SDS011;31507;51.494;7.518;2022-10-13T16:29:04;33.85;;;20.58;;
45806;SDS011;31507;51.494;7.518;2022-10-13T16:31:30;41.35;;;21.85;;
45806;SDS011;31507;51.494;7.518;2022-10-13T16:33:56;37.55;;;21.90;;
45806;SDS011;31507;51.494;7.518;2022-10-13T16:36:21;38.05;;;22.05;;
45806;SDS011;31507;51.494;7.518;2022-10-13T16:38:48;37.95;;;21.60;;
45806;SDS011;31507;51.494;7.518;2022-10-13T16:41:15;39.47;;;21.80;;
45806;SDS011;31507;51.494;7.518;2022-10-13T16:43:42;38.30;;;21.88;;
45806;SDS011;31507;51.494;7.518;2022-10-13T16:46:10;39.80;;;23.13;;
45806;SDS011;31507;51.494;7.518;2022-10-13T16:48:37;43.10;;;23.70;;
45806;SDS011;31507;51.494;7.518;2022-10-13T16:51:04;46.28;;;24.35;;
45806;SDS011;31507;51.494;7.518;2022-10-13T16:53:31;41.28;;;21.85;;
45806;SDS011;31507;51.494;7.518;2022-10-13T16:55:58;36.60;;;21.95;;